Terminal Aerodrome Forecast
Issued by NWS Sterling, VA

Home | Current Version | Previous Version | Text Only | Print | Product List | Glossary On
Versions: 1 2 3 4 5 6 7 8 9 10 11 12 13 14 15 16 17 18 19 20 21 22 23
000
FTUS41 KLWX 011700 RRA
TAFBWI
TAF
KBWI 011741Z 0118/0224 04004KT P6SM SCT030 BKN060
     FM011900 05004KT P6SM BKN035
     FM020000 VRB03KT P6SM BKN030
     FM020300 VRB03KT P6SM BKN035
     FM021500 VRB03KT P6SM SCT040=

USA.gov is the U.S. government's official web portal to all federal, state and local government web resources and services.